DAAD

Details ICAO DAAD
Name BOU SAADA
Region Algeria
Timezone Africa/Algiers (UTC+1.0)
Plans Departing 3
Arriving 5
Stats Elevation 1,506 ft / 459 m (AMSL)
Location 35.332512° 4.206524°
Runways 1
Magnetic Variation 1.225° E
Sunrise 2017-12-14 06:45:25 UTC / 2017-12-14 07:45:25 Local
Sunset 2017-12-14 16:33:05 UTC / 2017-12-14 17:33:05 Local
Advertisement - Login to hide

Runways

ID Width Length Bearing (true) Bearing (mag) Surface Threshold Offset Overrun Length
04 98 ft / 30 m 7,254 ft / 2,211 m 41.62° 40.40° Asphalt 0 ft / 0 m 0 ft / 0 m
22 98 ft / 30 m 7,254 ft / 2,211 m 221.63° 220.41° Asphalt 0 ft / 0 m 0 ft / 0 m

Map

Weather


0- 5 10 15 20 25 30 35+ Temperature / ° C

Clouds and Precipitation
Forecast for 2017-12-14 18:00 UTC. Updated 2 hours ago

Ground ~20,000 ft ~40,000 ft Winds

METAR

DAAD 141700Z 03002KT CAVOK 11/05 Q1022

TAF

Not found

Frequencies

Tower 118.10 MHz TWR
Warning: Do not use this data for real-world aviation or navigation. No guarantee of current accuracy is given.